sensor_id;sensor_type;location;lat;lon;timestamp;P1;durP1;ratioP1;P2;durP2;ratioP2
19291;SDS011;9779;51.756;7.450;2024-02-28T00:18:42;33.10;;;15.57;;
19291;SDS011;9779;51.756;7.450;2024-02-28T00:21:07;24.03;;;15.67;;
19291;SDS011;9779;51.756;7.450;2024-02-28T00:23:33;30.63;;;16.57;;
19291;SDS011;9779;51.756;7.450;2024-02-28T00:25:58;22.33;;;14.53;;
19291;SDS011;9779;51.756;7.450;2024-02-28T00:28:24;20.70;;;14.87;;
19291;SDS011;9779;51.756;7.450;2024-02-28T00:30:50;23.17;;;16.43;;
19291;SDS011;9779;51.756;7.450;2024-02-28T00:42:50;26.20;;;16.10;;
19291;SDS011;9779;51.756;7.450;2024-02-28T00:45:16;23.67;;;15.43;;
19291;SDS011;9779;51.756;7.450;2024-02-28T00:47:42;24.77;;;14.77;;
19291;SDS011;9779;51.756;7.450;2024-02-28T00:50:08;19.10;;;13.63;;
19291;SDS011;9779;51.756;7.450;2024-02-28T00:52:33;19.30;;;13.90;;
19291;SDS011;9779;51.756;7.450;2024-02-28T00:54:59;18.83;;;14.17;;
19291;SDS011;9779;51.756;7.450;2024-02-28T00:57:25;22.03;;;14.23;;
19291;SDS011;9779;51.756;7.450;2024-02-28T00:59:50;20.17;;;15.10;;
19291;SDS011;9779;51.756;7.450;2024-02-28T01:02:16;24.43;;;15.97;;
19291;SDS011;9779;51.756;7.450;2024-02-28T01:04:42;35.37;;;18.10;;
19291;SDS011;9779;51.756;7.450;2024-02-28T01:07:07;25.60;;;16.37;;
19291;SDS011;9779;51.756;7.450;2024-02-28T01:09:33;34.03;;;17.10;;
19291;SDS011;9779;51.756;7.450;2024-02-28T01:11:59;39.67;;;16.40;;
19291;SDS011;9779;51.756;7.450;2024-02-28T01:14:24;88.80;;;16.60;;
19291;SDS011;9779;51.756;7.450;2024-02-28T01:16:50;44.50;;;17.17;;
19291;SDS011;9779;51.756;7.450;2024-02-28T01:19:16;108.33;;;16.53;;
19291;SDS011;9779;51.756;7.450;2024-02-28T01:21:42;73.80;;;15.23;;
19291;SDS011;9779;51.756;7.450;2024-02-28T01:24:07;157.50;;;16.13;;
19291;SDS011;9779;51.756;7.450;2024-02-28T01:26:33;199.67;;;15.27;;
19291;SDS011;9779;51.756;7.450;2024-02-28T01:28:58;47.40;;;14.07;;
19291;SDS011;9779;51.756;7.450;2024-02-28T01:31:24;53.43;;;13.17;;
19291;SDS011;9779;51.756;7.450;2024-02-28T01:33:50;77.07;;;12.47;;
19291;SDS011;9779;51.756;7.450;2024-02-28T01:36:15;272.30;;;15.73;;
19291;SDS011;9779;51.756;7.450;2024-02-28T01:38:41;34.77;;;10.60;;
19291;SDS011;9779;51.756;7.450;2024-02-28T01:41:07;61.63;;;12.37;;
19291;SDS011;9779;51.756;7.450;2024-02-28T01:43:33;110.73;;;14.80;;
19291;SDS011;9779;51.756;7.450;2024-02-28T01:45:59;48.80;;;11.40;;
19291;SDS011;9779;51.756;7.450;2024-02-28T01:48:28;176.90;;;14.57;;
19291;SDS011;9779;51.756;7.450;2024-02-28T01:50:55;43.13;;;12.17;;
19291;SDS011;9779;51.756;7.450;2024-02-28T01:53:20;41.70;;;12.17;;
19291;SDS011;9779;51.756;7.450;2024-02-28T01:55:47;78.53;;;12.80;;
19291;SDS011;9779;51.756;7.450;2024-02-28T01:58:12;21.57;;;12.00;;
19291;SDS011;9779;51.756;7.450;2024-02-28T02:00:38;92.57;;;11.80;;
19291;SDS011;9779;51.756;7.450;2024-02-28T02:03:05;108.70;;;12.50;;
19291;SDS011;9779;51.756;7.450;2024-02-28T02:05:30;84.77;;;11.97;;
19291;SDS011;9779;51.756;7.450;2024-02-28T02:07:59;102.73;;;13.73;;
19291;SDS011;9779;51.756;7.450;2024-02-28T02:10:26;41.40;;;10.93;;
19291;SDS011;9779;51.756;7.450;2024-02-28T02:12:52;78.73;;;12.37;;
19291;SDS011;9779;51.756;7.450;2024-02-28T02:15:18;127.30;;;12.53;;
19291;SDS011;9779;51.756;7.450;2024-02-28T02:17:43;59.97;;;10.27;;
19291;SDS011;9779;51.756;7.450;2024-02-28T02:20:13;39.03;;;10.87;;
19291;SDS011;9779;51.756;7.450;2024-02-28T02:22:39;25.03;;;9.93;;
19291;SDS011;9779;51.756;7.450;2024-02-28T02:25:05;49.70;;;10.23;;
19291;SDS011;9779;51.756;7.450;2024-02-28T02:27:31;78.93;;;10.73;;
19291;SDS011;9779;51.756;7.450;2024-02-28T02:29:57;27.97;;;10.00;;
19291;SDS011;9779;51.756;7.450;2024-02-28T02:32:23;104.90;;;12.43;;
19291;SDS011;9779;51.756;7.450;2024-02-28T02:34:48;146.70;;;11.23;;
19291;SDS011;9779;51.756;7.450;2024-02-28T02:37:14;42.53;;;9.63;;
19291;SDS011;9779;51.756;7.450;2024-02-28T02:39:40;57.57;;;10.37;;
19291;SDS011;9779;51.756;7.450;2024-02-28T02:42:06;142.67;;;11.77;;
19291;SDS011;9779;51.756;7.450;2024-02-28T02:44:33;70.73;;;11.00;;
19291;SDS011;9779;51.756;7.450;2024-02-28T02:46:59;101.70;;;11.93;;
19291;SDS011;9779;51.756;7.450;2024-02-28T02:49:24;110.60;;;10.90;;
19291;SDS011;9779;51.756;7.450;2024-02-28T02:51:50;227.77;;;13.97;;
19291;SDS011;9779;51.756;7.450;2024-02-28T02:54:16;147.70;;;12.57;;
19291;SDS011;9779;51.756;7.450;2024-02-28T02:56:41;58.80;;;10.93;;
19291;SDS011;9779;51.756;7.450;2024-02-28T02:59:08;156.63;;;11.93;;
19291;SDS011;9779;51.756;7.450;2024-02-28T03:01:37;229.53;;;13.23;;
19291;SDS011;9779;51.756;7.450;2024-02-28T03:04:03;122.50;;;11.13;;
19291;SDS011;9779;51.756;7.450;2024-02-28T03:06:29;109.27;;;11.47;;
19291;SDS011;9779;51.756;7.450;2024-02-28T03:08:55;77.73;;;12.23;;
19291;SDS011;9779;51.756;7.450;2024-02-28T03:11:20;47.60;;;11.10;;
19291;SDS011;9779;51.756;7.450;2024-02-28T03:13:46;47.47;;;11.13;;
19291;SDS011;9779;51.756;7.450;2024-02-28T03:16:11;73.87;;;12.23;;
19291;SDS011;9779;51.756;7.450;2024-02-28T03:18:37;22.73;;;10.87;;
19291;SDS011;9779;51.756;7.450;2024-02-28T03:21:03;98.33;;;14.27;;
19291;SDS011;9779;51.756;7.450;2024-02-28T03:23:29;28.70;;;11.83;;
19291;SDS011;9779;51.756;7.450;2024-02-28T03:25:54;129.67;;;12.17;;
19291;SDS011;9779;51.756;7.450;2024-02-28T03:28:20;138.57;;;13.57;;
19291;SDS011;9779;51.756;7.450;2024-02-28T03:30:45;44.20;;;11.07;;
19291;SDS011;9779;51.756;7.450;2024-02-28T03:33:11;84.80;;;12.43;;
19291;SDS011;9779;51.756;7.450;2024-02-28T03:35:36;80.60;;;12.40;;
19291;SDS011;9779;51.756;7.450;2024-02-28T03:38:02;77.10;;;12.10;;
19291;SDS011;9779;51.756;7.450;2024-02-28T03:40:28;57.70;;;11.97;;
19291;SDS011;9779;51.756;7.450;2024-02-28T03:42:53;39.20;;;11.83;;
19291;SDS011;9779;51.756;7.450;2024-02-28T03:45:19;31.67;;;12.87;;
19291;SDS011;9779;51.756;7.450;2024-02-28T03:47:45;39.87;;;11.87;;
19291;SDS011;9779;51.756;7.450;2024-02-28T03:50:10;24.43;;;12.53;;
19291;SDS011;9779;51.756;7.450;2024-02-28T03:52:36;14.97;;;11.53;;
19291;SDS011;9779;51.756;7.450;2024-02-28T03:55:02;24.90;;;13.50;;
19291;SDS011;9779;51.756;7.450;2024-02-28T03:57:28;26.60;;;13.93;;
19291;SDS011;9779;51.756;7.450;2024-02-28T04:06:37;50.30;;;14.77;;
19291;SDS011;9779;51.756;7.450;2024-02-28T04:09:02;79.33;;;16.17;;
19291;SDS011;9779;51.756;7.450;2024-02-28T04:11:28;104.13;;;17.70;;
19291;SDS011;9779;51.756;7.450;2024-02-28T04:13:54;45.27;;;17.37;;
19291;SDS011;9779;51.756;7.450;2024-02-28T04:16:21;46.30;;;15.83;;
19291;SDS011;9779;51.756;7.450;2024-02-28T04:18:46;90.43;;;16.63;;
19291;SDS011;9779;51.756;7.450;2024-02-28T04:21:12;46.27;;;16.10;;
19291;SDS011;9779;51.756;7.450;2024-02-28T04:23:38;33.97;;;16.33;;
19291;SDS011;9779;51.756;7.450;2024-02-28T04:26:04;81.37;;;17.27;;
19291;SDS011;9779;51.756;7.450;2024-02-28T04:28:29;58.73;;;16.67;;
19291;SDS011;9779;51.756;7.450;2024-02-28T04:30:55;49.93;;;15.37;;
19291;SDS011;9779;51.756;7.450;2024-02-28T04:33:21;45.73;;;17.00;;
19291;SDS011;9779;51.756;7.450;2024-02-28T04:35:47;143.33;;;21.20;;
19291;SDS011;9779;51.756;7.450;2024-02-28T04:38:13;58.00;;;18.77;;
19291;SDS011;9779;51.756;7.450;2024-02-28T04:40:39;70.97;;;20.30;;
19291;SDS011;9779;51.756;7.450;2024-02-28T04:43:04;117.33;;;23.90;;
19291;SDS011;9779;51.756;7.450;2024-02-28T04:45:30;105.30;;;20.17;;
19291;SDS011;9779;51.756;7.450;2024-02-28T04:47:56;136.30;;;22.47;;
19291;SDS011;9779;51.756;7.450;2024-02-28T04:50:22;65.17;;;21.90;;
19291;SDS011;9779;51.756;7.450;2024-02-28T04:52:48;161.37;;;24.67;;
19291;SDS011;9779;51.756;7.450;2024-02-28T04:55:14;186.57;;;25.70;;
19291;SDS011;9779;51.756;7.450;2024-02-28T04:57:39;125.90;;;25.87;;
19291;SDS011;9779;51.756;7.450;2024-02-28T05:00:05;94.53;;;24.57;;
19291;SDS011;9779;51.756;7.450;2024-02-28T05:02:33;133.63;;;25.17;;
19291;SDS011;9779;51.756;7.450;2024-02-28T05:04:59;242.33;;;28.53;;
19291;SDS011;9779;51.756;7.450;2024-02-28T05:07:24;71.13;;;24.57;;
19291;SDS011;9779;51.756;7.450;2024-02-28T05:09:50;85.87;;;27.53;;
19291;SDS011;9779;51.756;7.450;2024-02-28T05:12:15;67.03;;;24.80;;
19291;SDS011;9779;51.756;7.450;2024-02-28T05:14:41;96.17;;;26.07;;
19291;SDS011;9779;51.756;7.450;2024-02-28T05:17:06;99.40;;;26.33;;
19291;SDS011;9779;51.756;7.450;2024-02-28T05:19:32;155.13;;;27.27;;
19291;SDS011;9779;51.756;7.450;2024-02-28T05:21:58;100.60;;;26.47;;
19291;SDS011;9779;51.756;7.450;2024-02-28T05:24:23;202.80;;;28.57;;
19291;SDS011;9779;51.756;7.450;2024-02-28T05:26:49;83.90;;;25.43;;
19291;SDS011;9779;51.756;7.450;2024-02-28T05:29:15;72.60;;;26.30;;
19291;SDS011;9779;51.756;7.450;2024-02-28T05:31:40;147.90;;;26.83;;
19291;SDS011;9779;51.756;7.450;2024-02-28T05:34:06;78.83;;;27.30;;
19291;SDS011;9779;51.756;7.450;2024-02-28T05:36:32;90.47;;;28.47;;
19291;SDS011;9779;51.756;7.450;2024-02-28T05:38:58;98.43;;;26.87;;
19291;SDS011;9779;51.756;7.450;2024-02-28T05:41:26;83.73;;;27.63;;
19291;SDS011;9779;51.756;7.450;2024-02-28T05:43:51;98.43;;;28.50;;
19291;SDS011;9779;51.756;7.450;2024-02-28T05:46:18;93.20;;;28.23;;
19291;SDS011;9779;51.756;7.450;2024-02-28T05:48:44;85.20;;;28.27;;
19291;SDS011;9779;51.756;7.450;2024-02-28T05:51:10;179.63;;;31.50;;
19291;SDS011;9779;51.756;7.450;2024-02-28T05:53:37;93.50;;;27.13;;
19291;SDS011;9779;51.756;7.450;2024-02-28T05:56:06;87.33;;;29.80;;
19291;SDS011;9779;51.756;7.450;2024-02-28T05:58:39;186.40;;;28.30;;
19291;SDS011;9779;51.756;7.450;2024-02-28T06:01:05;161.30;;;30.50;;
19291;SDS011;9779;51.756;7.450;2024-02-28T06:03:32;128.77;;;29.20;;
19291;SDS011;9779;51.756;7.450;2024-02-28T06:05:58;83.80;;;30.23;;
19291;SDS011;9779;51.756;7.450;2024-02-28T06:08:23;129.40;;;27.50;;
19291;SDS011;9779;51.756;7.450;2024-02-28T06:10:49;107.77;;;27.63;;
19291;SDS011;9779;51.756;7.450;2024-02-28T06:13:17;97.93;;;29.27;;
19291;SDS011;9779;51.756;7.450;2024-02-28T06:15:43;87.73;;;28.20;;
19291;SDS011;9779;51.756;7.450;2024-02-28T06:18:08;100.47;;;29.07;;
19291;SDS011;9779;51.756;7.450;2024-02-28T06:20:34;97.00;;;31.27;;
19291;SDS011;9779;51.756;7.450;2024-02-28T06:23:00;99.93;;;29.40;;
19291;SDS011;9779;51.756;7.450;2024-02-28T06:25:25;96.27;;;30.33;;
19291;SDS011;9779;51.756;7.450;2024-02-28T06:27:53;123.33;;;29.20;;
19291;SDS011;9779;51.756;7.450;2024-02-28T06:30:19;96.33;;;30.43;;
19291;SDS011;9779;51.756;7.450;2024-02-28T06:32:44;84.90;;;30.70;;
19291;SDS011;9779;51.756;7.450;2024-02-28T06:35:10;108.67;;;30.17;;
19291;SDS011;9779;51.756;7.450;2024-02-28T06:37:35;84.70;;;31.63;;
19291;SDS011;9779;51.756;7.450;2024-02-28T06:40:04;118.77;;;29.87;;
19291;SDS011;9779;51.756;7.450;2024-02-28T06:42:30;103.93;;;32.43;;
19291;SDS011;9779;51.756;7.450;2024-02-28T06:44:56;85.87;;;31.37;;
19291;SDS011;9779;51.756;7.450;2024-02-28T06:47:22;146.83;;;31.63;;
19291;SDS011;9779;51.756;7.450;2024-02-28T06:49:47;211.63;;;33.10;;
19291;SDS011;9779;51.756;7.450;2024-02-28T06:52:14;224.57;;;35.67;;
19291;SDS011;9779;51.756;7.450;2024-02-28T06:54:40;151.47;;;33.50;;
19291;SDS011;9779;51.756;7.450;2024-02-28T06:57:05;150.73;;;32.80;;
19291;SDS011;9779;51.756;7.450;2024-02-28T06:59:31;88.50;;;33.37;;
19291;SDS011;9779;51.756;7.450;2024-02-28T07:01:56;97.57;;;33.13;;
19291;SDS011;9779;51.756;7.450;2024-02-28T07:04:22;100.90;;;36.23;;
19291;SDS011;9779;51.756;7.450;2024-02-28T07:06:48;95.97;;;34.47;;
19291;SDS011;9779;51.756;7.450;2024-02-28T07:09:14;116.20;;;35.30;;
19291;SDS011;9779;51.756;7.450;2024-02-28T07:11:40;134.17;;;39.27;;
19291;SDS011;9779;51.756;7.450;2024-02-28T07:14:06;106.47;;;36.80;;
19291;SDS011;9779;51.756;7.450;2024-02-28T07:16:32;126.43;;;37.50;;
19291;SDS011;9779;51.756;7.450;2024-02-28T07:18:59;114.00;;;37.83;;
19291;SDS011;9779;51.756;7.450;2024-02-28T07:21:25;95.03;;;36.67;;
19291;SDS011;9779;51.756;7.450;2024-02-28T07:23:51;114.60;;;38.20;;
19291;SDS011;9779;51.756;7.450;2024-02-28T07:26:17;112.07;;;37.73;;
19291;SDS011;9779;51.756;7.450;2024-02-28T07:28:43;109.30;;;41.27;;
19291;SDS011;9779;51.756;7.450;2024-02-28T07:31:17;104.40;;;39.77;;
19291;SDS011;9779;51.756;7.450;2024-02-28T07:33:44;100.23;;;38.50;;
19291;SDS011;9779;51.756;7.450;2024-02-28T07:36:10;100.73;;;39.07;;
19291;SDS011;9779;51.756;7.450;2024-02-28T07:38:36;105.43;;;40.37;;
19291;SDS011;9779;51.756;7.450;2024-02-28T07:41:01;100.93;;;37.67;;
19291;SDS011;9779;51.756;7.450;2024-02-28T07:43:27;102.53;;;41.43;;
19291;SDS011;9779;51.756;7.450;2024-02-28T07:45:53;105.83;;;39.77;;
19291;SDS011;9779;51.756;7.450;2024-02-28T07:48:19;93.63;;;38.90;;
19291;SDS011;9779;51.756;7.450;2024-02-28T07:50:45;101.00;;;39.97;;
19291;SDS011;9779;51.756;7.450;2024-02-28T07:53:11;101.37;;;39.20;;
19291;SDS011;9779;51.756;7.450;2024-02-28T07:55:37;107.10;;;39.33;;
19291;SDS011;9779;51.756;7.450;2024-02-28T07:58:03;95.60;;;41.33;;
19291;SDS011;9779;51.756;7.450;2024-02-28T08:00:31;97.97;;;39.50;;
19291;SDS011;9779;51.756;7.450;2024-02-28T08:02:58;102.57;;;41.87;;
19291;SDS011;9779;51.756;7.450;2024-02-28T08:05:24;93.70;;;39.50;;
19291;SDS011;9779;51.756;7.450;2024-02-28T08:07:49;86.57;;;38.37;;
19291;SDS011;9779;51.756;7.450;2024-02-28T08:10:15;86.07;;;37.03;;
19291;SDS011;9779;51.756;7.450;2024-02-28T08:12:41;93.40;;;39.30;;
19291;SDS011;9779;51.756;7.450;2024-02-28T08:15:06;93.27;;;37.17;;
19291;SDS011;9779;51.756;7.450;2024-02-28T08:17:32;85.70;;;36.57;;
19291;SDS011;9779;51.756;7.450;2024-02-28T08:19:58;82.50;;;36.50;;
19291;SDS011;9779;51.756;7.450;2024-02-28T08:22:24;77.57;;;35.57;;
19291;SDS011;9779;51.756;7.450;2024-02-28T08:24:53;84.70;;;35.97;;
19291;SDS011;9779;51.756;7.450;2024-02-28T08:27:19;79.47;;;34.70;;
19291;SDS011;9779;51.756;7.450;2024-02-28T08:29:45;76.40;;;33.73;;
19291;SDS011;9779;51.756;7.450;2024-02-28T08:32:12;71.17;;;33.57;;
19291;SDS011;9779;51.756;7.450;2024-02-28T08:34:38;74.73;;;33.13;;
19291;SDS011;9779;51.756;7.450;2024-02-28T08:37:04;80.83;;;34.87;;
19291;SDS011;9779;51.756;7.450;2024-02-28T08:39:29;80.33;;;35.20;;
19291;SDS011;9779;51.756;7.450;2024-02-28T08:41:55;77.50;;;35.77;;
19291;SDS011;9779;51.756;7.450;2024-02-28T08:44:20;72.43;;;34.30;;
19291;SDS011;9779;51.756;7.450;2024-02-28T08:46:47;71.17;;;33.73;;
19291;SDS011;9779;51.756;7.450;2024-02-28T08:49:13;74.47;;;35.07;;
19291;SDS011;9779;51.756;7.450;2024-02-28T08:51:39;76.00;;;34.60;;
19291;SDS011;9779;51.756;7.450;2024-02-28T08:54:05;80.23;;;34.07;;
19291;SDS011;9779;51.756;7.450;2024-02-28T08:56:31;70.47;;;35.60;;
19291;SDS011;9779;51.756;7.450;2024-02-28T08:58:58;77.77;;;34.13;;
19291;SDS011;9779;51.756;7.450;2024-02-28T09:01:23;71.33;;;34.73;;
19291;SDS011;9779;51.756;7.450;2024-02-28T09:03:49;85.07;;;36.10;;
19291;SDS011;9779;51.756;7.450;2024-02-28T09:06:15;69.47;;;34.37;;
19291;SDS011;9779;51.756;7.450;2024-02-28T09:08:41;75.50;;;35.50;;
19291;SDS011;9779;51.756;7.450;2024-02-28T09:11:06;69.50;;;33.53;;
19291;SDS011;9779;51.756;7.450;2024-02-28T09:13:32;71.80;;;33.87;;
19291;SDS011;9779;51.756;7.450;2024-02-28T09:15:57;72.70;;;34.60;;
19291;SDS011;9779;51.756;7.450;2024-02-28T09:18:23;72.93;;;33.67;;
19291;SDS011;9779;51.756;7.450;2024-02-28T09:20:49;73.47;;;34.83;;
19291;SDS011;9779;51.756;7.450;2024-02-28T09:23:14;73.27;;;34.03;;
19291;SDS011;9779;51.756;7.450;2024-02-28T09:25:40;72.77;;;35.90;;
19291;SDS011;9779;51.756;7.450;2024-02-28T09:28:06;67.13;;;34.17;;
19291;SDS011;9779;51.756;7.450;2024-02-28T09:30:31;66.60;;;32.50;;
19291;SDS011;9779;51.756;7.450;2024-02-28T09:32:57;64.93;;;32.80;;
19291;SDS011;9779;51.756;7.450;2024-02-28T09:35:23;73.70;;;33.03;;
19291;SDS011;9779;51.756;7.450;2024-02-28T09:37:49;72.00;;;34.93;;
19291;SDS011;9779;51.756;7.450;2024-02-28T09:40:14;71.47;;;34.47;;
19291;SDS011;9779;51.756;7.450;2024-02-28T09:42:41;66.77;;;33.20;;
19291;SDS011;9779;51.756;7.450;2024-02-28T09:45:08;73.13;;;33.27;;
19291;SDS011;9779;51.756;7.450;2024-02-28T09:47:37;70.77;;;34.50;;
19291;SDS011;9779;51.756;7.450;2024-02-28T09:50:02;69.97;;;35.47;;
19291;SDS011;9779;51.756;7.450;2024-02-28T09:52:29;75.83;;;35.37;;
19291;SDS011;9779;51.756;7.450;2024-02-28T09:54:54;77.17;;;35.90;;
19291;SDS011;9779;51.756;7.450;2024-02-28T09:57:20;70.90;;;33.97;;
19291;SDS011;9779;51.756;7.450;2024-02-28T09:59:52;69.70;;;33.67;;
19291;SDS011;9779;51.756;7.450;2024-02-28T10:02:19;65.20;;;32.57;;
19291;SDS011;9779;51.756;7.450;2024-02-28T10:04:46;63.13;;;31.17;;
19291;SDS011;9779;51.756;7.450;2024-02-28T10:07:12;72.07;;;33.43;;
19291;SDS011;9779;51.756;7.450;2024-02-28T10:09:38;73.13;;;34.57;;
19291;SDS011;9779;51.756;7.450;2024-02-28T10:12:05;68.20;;;32.73;;
19291;SDS011;9779;51.756;7.450;2024-02-28T10:14:31;71.47;;;33.37;;
19291;SDS011;9779;51.756;7.450;2024-02-28T10:16:56;67.03;;;32.33;;
19291;SDS011;9779;51.756;7.450;2024-02-28T10:19:22;62.67;;;32.33;;
19291;SDS011;9779;51.756;7.450;2024-02-28T10:21:47;66.53;;;30.90;;
19291;SDS011;9779;51.756;7.450;2024-02-28T10:24:13;68.73;;;31.63;;
19291;SDS011;9779;51.756;7.450;2024-02-28T10:26:45;64.13;;;31.33;;
19291;SDS011;9779;51.756;7.450;2024-02-28T10:29:20;63.57;;;31.07;;
19291;SDS011;9779;51.756;7.450;2024-02-28T10:31:50;60.03;;;29.93;;
19291;SDS011;9779;51.756;7.450;2024-02-28T10:34:22;59.80;;;28.97;;
19291;SDS011;9779;51.756;7.450;2024-02-28T10:36:48;57.27;;;29.90;;
19291;SDS011;9779;51.756;7.450;2024-02-28T10:39:14;62.97;;;31.57;;
19291;SDS011;9779;51.756;7.450;2024-02-28T10:41:40;64.50;;;31.40;;
19291;SDS011;9779;51.756;7.450;2024-02-28T10:44:08;65.00;;;32.10;;
19291;SDS011;9779;51.756;7.450;2024-02-28T10:46:35;67.97;;;31.30;;
19291;SDS011;9779;51.756;7.450;2024-02-28T10:49:06;61.83;;;30.90;;
19291;SDS011;9779;51.756;7.450;2024-02-28T10:51:34;58.97;;;29.30;;
19291;SDS011;9779;51.756;7.450;2024-02-28T10:54:07;52.37;;;28.03;;
19291;SDS011;9779;51.756;7.450;2024-02-28T10:56:37;52.07;;;26.80;;
19291;SDS011;9779;51.756;7.450;2024-02-28T10:59:07;55.97;;;29.17;;
19291;SDS011;9779;51.756;7.450;2024-02-28T11:01:37;53.57;;;27.53;;
19291;SDS011;9779;51.756;7.450;2024-02-28T11:04:07;50.43;;;27.23;;
19291;SDS011;9779;51.756;7.450;2024-02-28T11:06:33;59.93;;;29.53;;
19291;SDS011;9779;51.756;7.450;2024-02-28T11:08:59;45.70;;;25.93;;
19291;SDS011;9779;51.756;7.450;2024-02-28T11:11:29;52.07;;;28.90;;
19291;SDS011;9779;51.756;7.450;2024-02-28T11:13:57;48.93;;;26.83;;
19291;SDS011;9779;51.756;7.450;2024-02-28T11:16:34;54.97;;;26.67;;
19291;SDS011;9779;51.756;7.450;2024-02-28T11:19:01;47.90;;;25.53;;
19291;SDS011;9779;51.756;7.450;2024-02-28T11:21:28;49.37;;;24.60;;
19291;SDS011;9779;51.756;7.450;2024-02-28T11:23:57;47.63;;;25.40;;
19291;SDS011;9779;51.756;7.450;2024-02-28T11:26:24;47.93;;;24.70;;
19291;SDS011;9779;51.756;7.450;2024-02-28T11:28:51;46.90;;;25.87;;
19291;SDS011;9779;51.756;7.450;2024-02-28T11:31:16;44.00;;;24.67;;
19291;SDS011;9779;51.756;7.450;2024-02-28T11:33:43;51.10;;;26.33;;
19291;SDS011;9779;51.756;7.450;2024-02-28T11:36:11;52.17;;;26.27;;
19291;SDS011;9779;51.756;7.450;2024-02-28T11:38:38;48.83;;;26.73;;
19291;SDS011;9779;51.756;7.450;2024-02-28T11:41:04;55.50;;;28.43;;
19291;SDS011;9779;51.756;7.450;2024-02-28T11:43:32;48.80;;;27.60;;
19291;SDS011;9779;51.756;7.450;2024-02-28T11:45:59;51.13;;;27.93;;
19291;SDS011;9779;51.756;7.450;2024-02-28T11:48:26;47.70;;;26.53;;
19291;SDS011;9779;51.756;7.450;2024-02-28T11:50:54;46.03;;;26.73;;
19291;SDS011;9779;51.756;7.450;2024-02-28T11:53:21;51.77;;;26.90;;
19291;SDS011;9779;51.756;7.450;2024-02-28T11:55:48;48.47;;;26.10;;
19291;SDS011;9779;51.756;7.450;2024-02-28T11:58:14;46.30;;;26.63;;
19291;SDS011;9779;51.756;7.450;2024-02-28T12:00:47;48.73;;;27.13;;
19291;SDS011;9779;51.756;7.450;2024-02-28T12:03:20;50.10;;;25.07;;
19291;SDS011;9779;51.756;7.450;2024-02-28T12:05:46;47.83;;;24.63;;
19291;SDS011;9779;51.756;7.450;2024-02-28T12:08:12;44.97;;;24.87;;
19291;SDS011;9779;51.756;7.450;2024-02-28T12:10:38;50.53;;;23.93;;
19291;SDS011;9779;51.756;7.450;2024-02-28T12:13:04;47.07;;;23.50;;
19291;SDS011;9779;51.756;7.450;2024-02-28T12:15:30;48.30;;;24.10;;
19291;SDS011;9779;51.756;7.450;2024-02-28T12:17:56;50.10;;;27.67;;
19291;SDS011;9779;51.756;7.450;2024-02-28T12:20:23;53.03;;;27.70;;
19291;SDS011;9779;51.756;7.450;2024-02-28T12:22:49;43.23;;;24.70;;
19291;SDS011;9779;51.756;7.450;2024-02-28T12:25:14;46.07;;;23.87;;
19291;SDS011;9779;51.756;7.450;2024-02-28T12:27:40;39.23;;;23.20;;
19291;SDS011;9779;51.756;7.450;2024-02-28T12:30:06;42.60;;;23.50;;
19291;SDS011;9779;51.756;7.450;2024-02-28T12:32:32;44.10;;;25.50;;
19291;SDS011;9779;51.756;7.450;2024-02-28T12:34:57;45.30;;;25.67;;
19291;SDS011;9779;51.756;7.450;2024-02-28T12:37:23;52.90;;;24.97;;
19291;SDS011;9779;51.756;7.450;2024-02-28T12:39:49;51.90;;;23.50;;
19291;SDS011;9779;51.756;7.450;2024-02-28T12:42:16;36.03;;;20.57;;
19291;SDS011;9779;51.756;7.450;2024-02-28T12:44:42;39.50;;;20.63;;
19291;SDS011;9779;51.756;7.450;2024-02-28T12:47:11;40.13;;;21.27;;
19291;SDS011;9779;51.756;7.450;2024-02-28T12:49:37;43.37;;;22.43;;
19291;SDS011;9779;51.756;7.450;2024-02-28T12:52:03;49.90;;;23.73;;
19291;SDS011;9779;51.756;7.450;2024-02-28T12:54:29;44.37;;;22.77;;
19291;SDS011;9779;51.756;7.450;2024-02-28T12:56:55;39.73;;;21.57;;
19291;SDS011;9779;51.756;7.450;2024-02-28T12:59:21;45.80;;;23.23;;
19291;SDS011;9779;51.756;7.450;2024-02-28T13:01:46;41.37;;;20.73;;
19291;SDS011;9779;51.756;7.450;2024-02-28T13:04:13;37.00;;;20.67;;
19291;SDS011;9779;51.756;7.450;2024-02-28T13:06:38;35.33;;;20.17;;
19291;SDS011;9779;51.756;7.450;2024-02-28T13:09:04;38.33;;;21.60;;
19291;SDS011;9779;51.756;7.450;2024-02-28T13:11:37;43.67;;;21.30;;
19291;SDS011;9779;51.756;7.450;2024-02-28T13:14:02;36.70;;;20.77;;
19291;SDS011;9779;51.756;7.450;2024-02-28T13:16:29;43.00;;;21.73;;
19291;SDS011;9779;51.756;7.450;2024-02-28T13:18:55;36.63;;;19.80;;
19291;SDS011;9779;51.756;7.450;2024-02-28T13:21:21;38.03;;;19.20;;
19291;SDS011;9779;51.756;7.450;2024-02-28T13:23:46;38.40;;;20.47;;
19291;SDS011;9779;51.756;7.450;2024-02-28T13:26:12;39.80;;;21.13;;
19291;SDS011;9779;51.756;7.450;2024-02-28T13:28:45;42.60;;;21.63;;
19291;SDS011;9779;51.756;7.450;2024-02-28T13:31:11;38.53;;;21.00;;
19291;SDS011;9779;51.756;7.450;2024-02-28T13:33:37;42.00;;;20.80;;
19291;SDS011;9779;51.756;7.450;2024-02-28T13:36:03;38.33;;;21.53;;
19291;SDS011;9779;51.756;7.450;2024-02-28T13:38:29;36.37;;;20.97;;
19291;SDS011;9779;51.756;7.450;2024-02-28T13:40:55;37.00;;;20.13;;
19291;SDS011;9779;51.756;7.450;2024-02-28T13:43:21;33.30;;;19.70;;
19291;SDS011;9779;51.756;7.450;2024-02-28T13:45:48;33.53;;;19.70;;
19291;SDS011;9779;51.756;7.450;2024-02-28T13:50:43;33.60;;;20.17;;
19291;SDS011;9779;51.756;7.450;2024-02-28T13:53:09;35.60;;;19.80;;
19291;SDS011;9779;51.756;7.450;2024-02-28T13:55:35;34.83;;;19.77;;
19291;SDS011;9779;51.756;7.450;2024-02-28T13:58:00;39.63;;;20.30;;
19291;SDS011;9779;51.756;7.450;2024-02-28T14:00:26;36.77;;;20.07;;
19291;SDS011;9779;51.756;7.450;2024-02-28T14:02:52;37.90;;;19.87;;
19291;SDS011;9779;51.756;7.450;2024-02-28T14:05:18;32.30;;;19.87;;
19291;SDS011;9779;51.756;7.450;2024-02-28T14:07:43;34.33;;;19.37;;
19291;SDS011;9779;51.756;7.450;2024-02-28T14:10:09;38.03;;;19.80;;
19291;SDS011;9779;51.756;7.450;2024-02-28T14:12:36;31.80;;;19.13;;
19291;SDS011;9779;51.756;7.450;2024-02-28T14:15:02;36.30;;;19.70;;
19291;SDS011;9779;51.756;7.450;2024-02-28T14:17:29;30.43;;;17.97;;
19291;SDS011;9779;51.756;7.450;2024-02-28T14:19:55;26.90;;;17.80;;
19291;SDS011;9779;51.756;7.450;2024-02-28T14:22:21;35.13;;;17.87;;
19291;SDS011;9779;51.756;7.450;2024-02-28T14:24:46;28.10;;;16.37;;
19291;SDS011;9779;51.756;7.450;2024-02-28T14:27:12;29.77;;;16.53;;
19291;SDS011;9779;51.756;7.450;2024-02-28T14:29:38;29.40;;;18.43;;
19291;SDS011;9779;51.756;7.450;2024-02-28T14:32:04;25.27;;;16.47;;
19291;SDS011;9779;51.756;7.450;2024-02-28T14:34:31;28.40;;;16.50;;
19291;SDS011;9779;51.756;7.450;2024-02-28T14:36:57;25.30;;;16.30;;
19291;SDS011;9779;51.756;7.450;2024-02-28T14:39:23;28.27;;;17.57;;
19291;SDS011;9779;51.756;7.450;2024-02-28T14:41:48;28.67;;;16.87;;
19291;SDS011;9779;51.756;7.450;2024-02-28T14:44:14;24.60;;;16.40;;
19291;SDS011;9779;51.756;7.450;2024-02-28T14:46:41;27.90;;;16.67;;
19291;SDS011;9779;51.756;7.450;2024-02-28T14:49:07;25.20;;;16.30;;
19291;SDS011;9779;51.756;7.450;2024-02-28T14:51:34;27.17;;;16.27;;
19291;SDS011;9779;51.756;7.450;2024-02-28T14:53:59;30.17;;;17.20;;
19291;SDS011;9779;51.756;7.450;2024-02-28T14:56:25;28.47;;;17.57;;
19291;SDS011;9779;51.756;7.450;2024-02-28T14:58:53;31.67;;;18.50;;
19291;SDS011;9779;51.756;7.450;2024-02-28T15:01:22;35.27;;;18.43;;